Fawn, Pennsylvania
Current Conditions -  °F | °C
As of 2:51 PM on Thursday 30 Oct 2014 (Local Time) from KAPG Reporting Station
Broken Clouds Broken Clouds  
Wind Chill: 59°   Ceiling: 3000
Heat Index: 59°   Visibility: 7mi
Dew Point: 39°   Wind: 6mph
Humidity: 48%   Direction: 300°WNW
Pressure: 30"   Gusts: NA
Location:  39.7571°N, 76.4417°W
Report Text: KAPG 301851Z 30005KT 7SM BKN030 15/04 A3000
Loading
Personal Weather Stations






























Interactive Weather Map
Tropical Storm Tracking
New forecast layout! Learn more

10-Day Weather Forecast

Advertisements
Track Severe Weather on mobile